Time;durP1;ratioP1;P1;durP2;ratioP2;P2;SDS_P1;SDS_P2;PMS_P1;PMS_P2;Temp;Humidity;BMP_temperature;BMP_pressure;BME280_temperature;BME280_humidity;BME280_pressure;Samples;Min_cycle;Max_cycle;Signal;HPM_P1;HPM_P2
2021/01/03 00:00:33;;;;;;;11.47;6.20;;;3.70;1.00;;;;;;5082073;28;20745;-71
2021/01/03 00:03:00;;;;;;;6.43;5.60;;;3.60;1.00;;;;;;5070911;28;20477;-70
2021/01/03 00:05:30;;;;;;;7.97;6.40;;;3.50;1.00;;;;;;5088228;28;20472;-71
2021/01/03 00:07:56;;;;;;;7.50;5.83;;;3.60;1.00;;;;;;5088558;28;20447;-71
2021/01/03 00:10:23;;;;;;;7.40;5.53;;;3.70;99.90;;;;;;5088277;28;20508;-71
2021/01/03 00:12:50;;;;;;;9.20;5.73;;;3.60;99.90;;;;;;5082501;28;21018;-71
2021/01/03 00:15:18;;;;;;;7.00;5.27;;;3.60;99.90;;;;;;5069139;28;20452;-71
2021/01/03 00:17:46;;;;;;;6.43;4.97;;;3.70;99.90;;;;;;5068060;28;20500;-71
2021/01/03 00:20:16;;;;;;;9.93;6.37;;;3.70;99.90;;;;;;5068363;28;20457;-70
2021/01/03 00:22:42;;;;;;;6.50;5.20;;;3.50;99.90;;;;;;5071422;28;20535;-71
2021/01/03 00:25:10;;;;;;;10.00;6.00;;;3.60;99.90;;;;;;5088793;28;20456;-70
2021/01/03 00:27:37;;;;;;;7.37;5.93;;;3.60;99.90;;;;;;5082590;28;20884;-70
2021/01/03 00:30:05;;;;;;;7.67;5.90;;;3.70;99.90;;;;;;5068039;28;20507;-71
2021/01/03 00:32:31;;;;;;;6.17;4.93;;;3.60;99.90;;;;;;5069413;28;20445;-71
2021/01/03 00:35:00;;;;;;;8.30;6.47;;;3.60;99.90;;;;;;5088712;28;20777;-71
2021/01/03 00:37:27;;;;;;;7.63;4.20;;;3.60;99.90;;;;;;5087872;28;20498;-70
2021/01/03 00:39:53;;;;;;;5.80;4.80;;;3.40;1.00;;;;;;5079802;28;20945;-71
2021/01/03 00:42:19;;;;;;;7.37;4.90;;;3.20;1.00;;;;;;5068533;28;20448;-71
2021/01/03 00:44:46;;;;;;;5.60;4.87;;;3.30;99.90;;;;;;5067812;28;20552;-70
2021/01/03 00:47:13;;;;;;;9.77;5.60;;;3.40;1.00;;;;;;5067811;28;20568;-69
2021/01/03 00:49:39;;;;;;;6.73;4.80;;;3.40;1.00;;;;;;5068119;28;20523;-71
2021/01/03 00:52:06;;;;;;;6.20;4.83;;;3.60;99.90;;;;;;5068310;28;20441;-72
2021/01/03 00:54:33;;;;;;;10.30;5.03;;;3.40;99.90;;;;;;5067703;28;20441;-71
2021/01/03 00:56:59;;;;;;;6.40;5.40;;;3.50;1.00;;;;;;5071264;28;20445;-70
2021/01/03 00:59:26;;;;;;;6.80;5.20;;;3.60;99.90;;;;;;5087761;28;21016;-70
2021/01/03 01:01:52;;;;;;;7.80;5.00;;;3.50;99.90;;;;;;5070224;28;20525;-71
2021/01/03 01:04:19;;;;;;;7.53;5.00;;;3.60;99.90;;;;;;5058823;28;20519;-71
2021/01/03 01:06:45;;;;;;;8.50;5.10;;;3.70;99.90;;;;;;5067988;28;20497;-70
2021/01/03 01:09:13;;;;;;;9.37;5.40;;;3.70;6.50;;;;;;5082109;28;20780;-71
2021/01/03 01:11:40;;;;;;;8.10;6.00;;;3.60;1.00;;;;;;5084955;28;20586;-69
2021/01/03 01:14:06;;;;;;;7.20;5.73;;;3.60;99.90;;;;;;5067999;28;20456;-70
2021/01/03 01:16:33;;;;;;;6.10;4.50;;;3.40;1.00;;;;;;5067375;28;20743;-71
2021/01/03 01:19:00;;;;;;;8.83;5.43;;;3.60;99.90;;;;;;5067886;28;20508;-70
2021/01/03 01:21:26;;;;;;;7.67;6.13;;;3.50;99.90;;;;;;5067043;28;20591;-71
2021/01/03 01:23:53;;;;;;;7.30;4.80;;;3.60;99.90;;;;;;5065551;28;20562;-70
2021/01/03 01:26:20;;;;;;;5.73;4.97;;;3.60;99.90;;;;;;5069403;28;20564;-71
2021/01/03 01:28:46;;;;;;;7.13;5.77;;;3.50;99.90;;;;;;5087882;28;20451;-71
2021/01/03 01:31:13;;;;;;;7.73;5.60;;;3.40;1.00;;;;;;5087199;28;20540;-69
2021/01/03 01:33:39;;;;;;;6.40;4.70;;;3.40;99.90;;;;;;5086074;28;20528;-71
2021/01/03 01:36:06;;;;;;;10.27;5.50;;;3.50;1.00;;;;;;5087578;28;20583;-71
2021/01/03 01:38:33;;;;;;;6.37;5.60;;;3.70;1.00;;;;;;5075604;28;20449;-71
2021/01/03 01:41:00;;;;;;;8.30;5.77;;;3.50;1.00;;;;;;5068252;28;20446;-71
2021/01/03 01:43:27;;;;;;;7.43;6.00;;;3.40;99.90;;;;;;5067411;28;20509;-72
2021/01/03 01:45:54;;;;;;;7.03;5.40;;;3.50;99.90;;;;;;5068038;28;20489;-70
2021/01/03 01:48:23;;;;;;;7.07;5.30;;;3.60;99.90;;;;;;5068583;28;20780;-70
2021/01/03 01:50:52;;;;;;;8.00;4.87;;;3.50;1.00;;;;;;5084883;28;20443;-71
2021/01/03 01:53:26;;;;;;;7.80;5.23;;;3.50;99.90;;;;;;5086536;28;20931;-70
2021/01/03 01:55:59;;;;;;;7.67;5.50;;;3.50;99.90;;;;;;5080690;28;20449;-71
2021/01/03 01:58:36;;;;;;;9.80;6.77;;;3.40;99.90;;;;;;5070768;28;20563;-70
2021/01/03 02:01:07;;;;;;;7.77;5.93;;;3.50;99.90;;;;;;5073023;28;20591;-70
2021/01/03 02:03:43;;;;;;;9.37;5.80;;;3.40;1.00;;;;;;5070856;28;20525;-71
2021/01/03 02:06:15;;;;;;;9.20;5.90;;;3.40;99.90;;;;;;5070929;28;20567;-71
2021/01/03 02:08:48;;;;;;;8.77;6.23;;;3.50;99.90;;;;;;5071148;28;20605;-70
2021/01/03 02:11:18;;;;;;;8.80;6.53;;;3.40;20.10;;;;;;5071311;28;21219;-71
2021/01/03 02:13:48;;;;;;;7.80;5.73;;;3.50;1.00;;;;;;5070999;28;20449;-71
2021/01/03 02:16:19;;;;;;;8.80;6.20;;;3.50;1.00;;;;;;5070681;28;20548;-71
2021/01/03 02:18:46;;;;;;;8.17;6.53;;;3.40;99.90;;;;;;5071073;28;20644;-72
2021/01/03 02:21:20;;;;;;;7.20;5.70;;;3.40;99.90;;;;;;5084495;28;20449;-70
2021/01/03 02:23:57;;;;;;;6.93;5.00;;;3.40;1.00;;;;;;5090932;28;20453;-72
2021/01/03 02:26:29;;;;;;;8.60;6.20;;;3.40;1.00;;;;;;5072232;28;20995;-72
2021/01/03 02:28:57;;;;;;;10.57;7.80;;;3.30;1.00;;;;;;5070864;28;20492;-71
2021/01/03 02:31:29;;;;;;;11.17;6.87;;;3.20;18.70;;;;;;5085264;28;20455;-71
2021/01/03 02:33:57;;;;;;;10.80;7.20;;;3.20;99.90;;;;;;5090840;28;20524;-71
2021/01/03 02:36:27;;;;;;;8.43;6.90;;;3.10;99.90;;;;;;5090667;28;20540;-72
2021/01/03 02:39:01;;;;;;;8.30;5.97;;;3.20;99.90;;;;;;5089489;28;20781;-71
2021/01/03 02:41:29;;;;;;;9.17;6.77;;;3.40;99.90;;;;;;5087396;28;20526;-71
2021/01/03 02:43:55;;;;;;;12.67;7.57;;;3.20;1.00;;;;;;5088361;28;20453;-71
2021/01/03 02:46:22;;;;;;;10.47;7.10;;;3.30;1.00;;;;;;5090001;28;20482;-71
2021/01/03 02:48:49;;;;;;;9.80;7.73;;;3.20;1.00;;;;;;5090303;28;20440;-71
2021/01/03 02:51:15;;;;;;;10.57;6.60;;;3.20;1.00;;;;;;5070977;28;20448;-71
2021/01/03 02:53:41;;;;;;;11.90;6.93;;;3.10;1.00;;;;;;5069528;28;20463;-71
2021/01/03 02:56:08;;;;;;;12.43;8.30;;;3.20;1.00;;;;;;5088858;28;20455;-71
2021/01/03 02:58:35;;;;;;;11.00;6.63;;;3.20;1.00;;;;;;5090149;28;20503;-71
2021/01/03 03:01:01;;;;;;;8.77;6.80;;;3.30;1.00;;;;;;5073367;28;20452;-70
2021/01/03 03:03:28;;;;;;;10.77;7.83;;;3.10;1.00;;;;;;5088403;28;20544;-71
2021/01/03 03:05:54;;;;;;;12.37;8.27;;;3.20;17.50;;;;;;5089840;28;20485;-71
2021/01/03 03:08:21;;;;;;;9.97;7.93;;;3.10;1.00;;;;;;5088527;28;20476;-71
2021/01/03 03:10:47;;;;;;;8.80;6.47;;;3.00;1.00;;;;;;5071364;28;20565;-71
2021/01/03 03:13:14;;;;;;;9.47;6.93;;;3.00;76.50;;;;;;5086606;28;20440;-70
2021/01/03 03:15:41;;;;;;;11.97;8.80;;;3.10;80.40;;;;;;5089870;28;20447;-70
2021/01/03 03:18:08;;;;;;;10.37;7.90;;;3.10;99.90;;;;;;5089956;28;20451;-71
2021/01/03 03:20:36;;;;;;;12.70;8.37;;;3.00;99.90;;;;;;5087344;28;20941;-71
2021/01/03 03:23:02;;;;;;;13.20;8.33;;;3.00;99.90;;;;;;5089310;28;20843;-71
2021/01/03 03:25:29;;;;;;;13.87;8.60;;;3.00;49.70;;;;;;5072421;28;20585;-71
2021/01/03 03:27:55;;;;;;;11.73;9.37;;;2.80;99.90;;;;;;5083973;28;20571;-70
2021/01/03 03:30:23;;;;;;;10.37;8.60;;;2.90;99.90;;;;;;5075422;28;20448;-71
2021/01/03 03:32:52;;;;;;;11.33;8.73;;;2.90;21.80;;;;;;5069255;28;20532;-72
2021/01/03 03:35:22;;;;;;;12.00;8.27;;;2.90;19.50;;;;;;5071677;28;20992;-70
2021/01/03 03:37:48;;;;;;;11.20;8.30;;;2.90;1.00;;;;;;5089301;28;20871;-71
2021/01/03 03:40:15;;;;;;;10.87;7.93;;;2.70;1.00;;;;;;5070059;28;20589;-71
2021/01/03 03:42:42;;;;;;;11.30;8.57;;;2.90;25.10;;;;;;5068504;28;20449;-70
2021/01/03 03:45:09;;;;;;;15.30;9.37;;;2.80;1.00;;;;;;5069001;28;20465;-71
2021/01/03 03:47:36;;;;;;;12.23;7.63;;;2.90;1.00;;;;;;5080668;28;20476;-70
2021/01/03 03:50:05;;;;;;;10.37;7.67;;;3.00;1.00;;;;;;5074081;28;20464;-71
2021/01/03 03:52:31;;;;;;;12.27;8.10;;;3.00;1.00;;;;;;5067535;28;21013;-70
2021/01/03 03:54:57;;;;;;;11.87;8.90;;;3.00;1.00;;;;;;5085070;28;20540;-72
2021/01/03 03:57:24;;;;;;;11.73;7.70;;;3.00;1.00;;;;;;5089018;28;20533;-71
2021/01/03 03:59:51;;;;;;;12.37;7.90;;;3.00;1.00;;;;;;5076015;28;20551;-72
2021/01/03 04:02:17;;;;;;;11.00;7.80;;;2.90;1.00;;;;;;5084882;28;20788;-72
2021/01/03 04:04:45;;;;;;;13.37;9.07;;;2.90;1.00;;;;;;5088450;28;20438;-71
2021/01/03 04:07:13;;;;;;;10.63;7.90;;;2.90;1.00;;;;;;5089074;28;20480;-72
2021/01/03 04:09:39;;;;;;;11.27;8.43;;;3.10;1.00;;;;;;5073610;28;20563;-72
2021/01/03 04:12:06;;;;;;;10.33;7.23;;;3.00;1.00;;;;;;5068514;28;20540;-72
2021/01/03 04:14:33;;;;;;;10.90;8.23;;;2.80;1.00;;;;;;5068469;28;20840;-72
2021/01/03 04:17:01;;;;;;;12.20;8.87;;;2.90;1.00;;;;;;5083080;28;20535;-72
2021/01/03 04:19:28;;;;;;;10.37;8.27;;;3.00;1.00;;;;;;5074649;28;20502;-72
2021/01/03 04:21:57;;;;;;;11.50;7.90;;;2.90;1.00;;;;;;5068246;28;20477;-72
2021/01/03 04:24:25;;;;;;;11.97;9.23;;;2.90;1.00;;;;;;5082819;28;20571;-70
2021/01/03 04:26:54;;;;;;;13.33;9.13;;;2.90;1.00;;;;;;5088954;28;20502;-72
2021/01/03 04:29:21;;;;;;;12.43;8.03;;;2.90;1.00;;;;;;5075822;28;20453;-72
2021/01/03 04:31:52;;;;;;;15.20;10.17;;;2.90;1.00;;;;;;5081204;28;20948;-70
2021/01/03 04:34:19;;;;;;;11.93;8.60;;;2.80;1.00;;;;;;5088292;28;20491;-73
2021/01/03 04:36:49;;;;;;;13.80;9.23;;;2.40;1.00;;;;;;5088643;28;20481;-71
2021/01/03 04:39:15;;;;;;;11.87;8.07;;;2.50;99.90;;;;;;5084476;28;20444;-70
2021/01/03 04:41:42;;;;;;;11.60;8.60;;;2.60;99.90;;;;;;5087102;28;20441;-71
2021/01/03 04:44:15;;;;;;;10.90;8.83;;;2.70;81.80;;;;;;5088298;28;20452;-71
2021/01/03 04:46:43;;;;;;;10.53;8.87;;;2.80;99.90;;;;;;5088503;28;20483;-70
2021/01/03 04:49:19;;;;;;;11.20;9.10;;;2.80;61.50;;;;;;5073659;28;20520;-70
2021/01/03 04:52:39;;;;;;;10.63;8.40;;;2.70;67.00;;;;;;5067565;28;20453;-69
2021/01/03 04:55:12;;;;;;;10.77;8.50;;;2.80;77.20;;;;;;5062817;28;20477;-71
2021/01/03 04:57:49;;;;;;;11.03;9.33;;;2.90;1.00;;;;;;5069766;28;20446;-70
2021/01/03 05:00:18;;;;;;;13.03;9.13;;;2.80;1.00;;;;;;5082943;28;20538;-70
2021/01/03 05:03:12;;;;;;;11.77;9.00;;;2.80;28.90;;;;;;5068406;28;20471;-71
2021/01/03 05:05:46;;;;;;;10.90;8.17;;;2.80;69.20;;;;;;5082575;28;20439;-71
2021/01/03 05:08:29;;;;;;;11.77;9.20;;;2.70;12.80;;;;;;5077380;28;20437;-71
2021/01/03 05:10:59;;;;;;;13.17;8.23;;;2.80;7.60;;;;;;5067904;28;20520;-70
2021/01/03 05:13:37;;;;;;;12.43;7.80;;;2.80;1.00;;;;;;5067528;28;20585;-70
2021/01/03 05:16:03;;;;;;;9.90;7.93;;;2.70;1.00;;;;;;5067452;28;20445;-69
2021/01/03 05:18:31;;;;;;;14.53;8.57;;;2.60;1.00;;;;;;5068734;28;20452;-70
2021/01/03 05:21:06;;;;;;;10.37;7.57;;;2.70;1.00;;;;;;5067723;28;20533;-70
2021/01/03 05:23:35;;;;;;;8.60;7.23;;;2.70;1.00;;;;;;5087256;28;20902;-70
2021/01/03 05:26:03;;;;;;;12.80;8.73;;;2.70;17.10;;;;;;5087754;28;20501;-69
2021/01/03 05:28:33;;;;;;;12.17;8.93;;;2.80;1.00;;;;;;5074632;28;20860;-70
2021/01/03 05:31:12;;;;;;;13.20;8.40;;;2.70;22.30;;;;;;5069018;28;20541;-71
2021/01/03 05:33:49;;;;;;;10.07;7.90;;;2.70;55.80;;;;;;5071684;28;20437;-71
2021/01/03 05:36:29;;;;;;;12.07;9.23;;;2.70;3.40;;;;;;5072895;28;20487;-71
2021/01/03 05:38:56;;;;;;;8.80;7.50;;;2.80;45.90;;;;;;5070651;28;20450;-72
2021/01/03 05:41:33;;;;;;;22.67;9.10;;;2.80;12.40;;;;;;5091900;28;20450;-72
2021/01/03 05:44:10;;;;;;;10.87;8.37;;;2.80;11.10;;;;;;5101044;28;21007;-70
2021/01/03 05:46:41;;;;;;;12.00;8.67;;;2.70;1.00;;;;;;5103746;28;20483;-73
2021/01/03 05:49:12;;;;;;;11.73;8.40;;;2.70;14.40;;;;;;5073798;28;20522;-71
2021/01/03 05:51:43;;;;;;;10.13;8.17;;;2.30;98.60;;;;;;5075865;28;20528;-71
2021/01/03 05:54:13;;;;;;;9.73;8.07;;;2.60;99.90;;;;;;5075447;28;20898;-72
2021/01/03 05:56:40;;;;;;;12.30;8.50;;;2.70;99.90;;;;;;5074441;28;20550;-72
2021/01/03 05:59:12;;;;;;;9.70;8.07;;;2.70;27.50;;;;;;5093904;28;20564;-70
2021/01/03 06:01:39;;;;;;;11.00;8.10;;;2.70;33.20;;;;;;5090001;28;20489;-72
2021/01/03 06:04:08;;;;;;;12.50;8.60;;;2.40;92.80;;;;;;5093836;28;20535;-73
2021/01/03 06:06:47;;;;;;;11.97;9.43;;;2.60;99.90;;;;;;5076757;28;20572;-73
2021/01/03 06:09:16;;;;;;;11.93;8.47;;;2.70;62.60;;;;;;5081634;28;20441;-70
2021/01/03 06:11:57;;;;;;;13.90;10.77;;;2.70;59.30;;;;;;5072710;28;20528;-71
2021/01/03 06:14:25;;;;;;;14.20;10.37;;;2.70;22.80;;;;;;5072937;28;20524;-73
2021/01/03 06:16:51;;;;;;;14.07;10.57;;;2.90;1.00;;;;;;5087726;28;20442;-73
2021/01/03 06:19:29;;;;;;;9.30;7.23;;;2.80;1.00;;;;;;5082076;28;20537;-73
2021/01/03 06:21:55;;;;;;;12.43;8.40;;;2.70;1.00;;;;;;5074348;28;20528;-71
2021/01/03 06:24:25;;;;;;;13.60;9.13;;;2.70;1.00;;;;;;5072513;28;20457;-72
2021/01/03 06:26:55;;;;;;;12.80;8.80;;;2.60;17.70;;;;;;5087199;28;20473;-72
2021/01/03 06:29:32;;;;;;;13.37;9.20;;;2.50;13.20;;;;;;5072777;28;20544;-71
2021/01/03 06:32:47;;;;;;;11.70;8.80;;;2.40;99.90;;;;;;5092762;28;20578;-72
2021/01/03 06:35:25;;;;;;;12.10;8.37;;;2.50;40.60;;;;;;5047327;28;20915;-71
2021/01/03 06:37:56;;;;;;;14.37;10.07;;;2.70;18.50;;;;;;5036675;28;20457;-71
2021/01/03 06:40:27;;;;;;;10.90;8.70;;;2.80;1.00;;;;;;5065133;28;20496;-72
2021/01/03 06:43:21;;;;;;;12.90;9.30;;;2.60;28.20;;;;;;5093256;28;20524;-72
2021/01/03 06:46:12;;;;;;;14.90;8.90;;;2.70;1.00;;;;;;5092841;28;20440;-72
2021/01/03 06:49:01;;;;;;;11.73;8.83;;;2.80;1.00;;;;;;5093201;28;20433;-72
2021/01/03 06:51:40;;;;;;;13.73;9.87;;;2.70;1.00;;;;;;5089732;28;20524;-73
2021/01/03 06:54:26;;;;;;;12.10;9.60;;;2.80;1.00;;;;;;5079459;28;20536;-72
2021/01/03 06:57:41;;;;;;;13.27;9.17;;;2.90;1.00;;;;;;5088997;28;20536;-72
2021/01/03 07:00:17;;;;;;;14.37;9.07;;;2.90;1.00;;;;;;5089406;28;20536;-72
2021/01/03 07:02:50;;;;;;;11.13;8.60;;;2.80;1.00;;;;;;5074706;28;20524;-72
2021/01/03 07:05:17;;;;;;;10.97;8.57;;;2.70;1.00;;;;;;5092287;28;20521;-73
2021/01/03 07:08:00;;;;;;;14.13;8.60;;;2.70;1.00;;;;;;5084906;28;20556;-71
2021/01/03 07:10:39;;;;;;;12.83;9.13;;;2.70;1.00;;;;;;5091926;28;20452;-72
2021/01/03 07:13:36;;;;;;;12.23;8.93;;;2.70;1.00;;;;;;5092236;28;20441;-72
2021/01/03 07:16:04;;;;;;;11.70;8.77;;;2.80;1.00;;;;;;5074200;28;20500;-71
2021/01/03 07:18:42;;;;;;;15.10;8.60;;;2.80;1.00;;;;;;5071546;28;20520;-72
2021/01/03 07:21:30;;;;;;;15.03;9.70;;;2.80;1.00;;;;;;5079253;28;20470;-72
2021/01/03 07:24:25;;;;;;;14.30;9.43;;;2.80;1.00;;;;;;5092290;28;20466;-71
2021/01/03 07:27:25;;;;;;;12.23;8.10;;;2.80;1.00;;;;;;5084796;28;20458;-71
2021/01/03 07:30:19;;;;;;;13.33;9.00;;;2.70;1.00;;;;;;5075698;28;20535;-71
2021/01/03 07:32:54;;;;;;;13.63;9.70;;;2.80;1.00;;;;;;5092066;28;20448;-71
2021/01/03 07:35:35;;;;;;;12.00;8.87;;;3.50;99.90;;;;;;5088808;28;20475;-71
2021/01/03 07:38:22;;;;;;;12.40;9.13;;;3.00;1.00;;;;;;5071806;28;20529;-71
2021/01/03 07:40:51;;;;;;;12.50;9.27;;;3.00;1.00;;;;;;5081918;28;20460;-72
2021/01/03 07:43:18;;;;;;;14.00;9.10;;;3.00;6.60;;;;;;5091756;28;20505;-72
2021/01/03 07:45:47;;;;;;;14.30;9.90;;;3.20;1.00;;;;;;5092019;28;20451;-71
2021/01/03 07:48:39;;;;;;;14.67;10.40;;;3.10;1.00;;;;;;5092594;28;20564;-70
2021/01/03 07:51:10;;;;;;;14.67;10.43;;;2.90;1.00;;;;;;5082181;28;20545;-72
2021/01/03 07:53:39;;;;;;;13.50;9.30;;;2.90;1.00;;;;;;5088352;28;20448;-73
2021/01/03 07:56:18;;;;;;;11.33;8.10;;;2.80;1.00;;;;;;5092366;28;20551;-72
2021/01/03 07:58:49;;;;;;;14.33;8.77;;;2.90;1.00;;;;;;5072223;28;20580;-71
2021/01/03 08:01:18;;;;;;;11.60;8.80;;;2.90;1.00;;;;;;5070555;28;20525;-71
2021/01/03 08:03:44;;;;;;;16.50;9.90;;;2.70;1.00;;;;;;5071315;28;20494;-71
2021/01/03 08:06:12;;;;;;;13.20;8.97;;;2.60;1.00;;;;;;5083810;28;20520;-71
2021/01/03 08:08:39;;;;;;;13.10;8.80;;;2.50;1.00;;;;;;5091539;28;20477;-71
2021/01/03 08:11:15;;;;;;;11.33;8.30;;;2.40;1.00;;;;;;5072550;28;20445;-70
2021/01/03 08:13:44;;;;;;;16.30;10.17;;;2.50;2.00;;;;;;5071267;28;20461;-71
2021/01/03 08:16:11;;;;;;;13.77;8.50;;;2.60;1.00;;;;;;5070886;28;20522;-71
2021/01/03 08:18:42;;;;;;;13.80;9.23;;;2.50;1.00;;;;;;5070995;28;20991;-71
2021/01/03 08:21:20;;;;;;;13.70;9.13;;;2.60;1.00;;;;;;5083369;28;20574;-73
2021/01/03 08:23:47;;;;;;;13.53;8.80;;;2.80;1.00;;;;;;5071319;28;20485;-71
2021/01/03 08:26:18;;;;;;;13.90;8.33;;;2.90;1.00;;;;;;5071709;28;20859;-71
2021/01/03 08:28:56;;;;;;;12.80;10.93;;;3.00;1.00;;;;;;5070760;28;21289;-71
2021/01/03 08:31:23;;;;;;;12.73;8.30;;;2.90;1.00;;;;;;5069953;28;20530;-71
2021/01/03 08:33:51;;;;;;;12.60;8.60;;;2.90;1.00;;;;;;5070834;28;20507;-71
2021/01/03 08:36:25;;;;;;;12.13;8.13;;;3.00;1.00;;;;;;5073162;28;20540;-72
2021/01/03 08:38:52;;;;;;;12.33;8.70;;;3.00;1.00;;;;;;5089637;28;20518;-72
2021/01/03 08:41:23;;;;;;;14.70;9.03;;;2.90;1.00;;;;;;5090338;28;20516;-71
2021/01/03 08:43:50;;;;;;;13.20;8.30;;;3.10;1.00;;;;;;5090794;28;20913;-72
2021/01/03 08:46:23;;;;;;;11.17;8.20;;;3.10;1.00;;;;;;5090222;28;20455;-71
2021/01/03 08:48:57;;;;;;;12.77;8.77;;;2.90;1.00;;;;;;5080819;28;20477;-71
2021/01/03 08:51:24;;;;;;;12.20;7.67;;;3.10;1.00;;;;;;5077412;28;20445;-71
2021/01/03 08:53:58;;;;;;;8.57;6.67;;;2.80;1.00;;;;;;5090762;28;20446;-71
2021/01/03 08:56:29;;;;;;;12.57;8.40;;;2.90;1.00;;;;;;5090384;28;20955;-71
2021/01/03 08:58:56;;;;;;;13.67;7.47;;;3.10;1.00;;;;;;5090922;28;20559;-72
2021/01/03 09:01:27;;;;;;;13.53;8.90;;;3.10;1.00;;;;;;5070144;28;20446;-71
2021/01/03 09:04:04;;;;;;;13.30;9.43;;;3.10;1.00;;;;;;5081773;28;20476;-73
2021/01/03 09:06:32;;;;;;;13.60;9.27;;;3.10;1.00;;;;;;5072583;28;20568;-71
2021/01/03 09:09:09;;;;;;;12.40;9.03;;;3.10;1.00;;;;;;5074743;28;20817;-72
2021/01/03 09:11:37;;;;;;;11.87;8.47;;;3.10;1.00;;;;;;5085922;28;20528;-72
2021/01/03 09:14:13;;;;;;;10.83;7.97;;;3.00;1.00;;;;;;5074342;28;20532;-71
2021/01/03 09:16:48;;;;;;;10.37;8.30;;;3.00;1.00;;;;;;5074502;28;20531;-72
2021/01/03 09:19:21;;;;;;;9.87;7.20;;;3.10;1.00;;;;;;5086940;28;20555;-71
2021/01/03 09:21:51;;;;;;;9.57;8.00;;;3.10;1.00;;;;;;5082551;28;20496;-69
2021/01/03 09:24:24;;;;;;;13.90;7.63;;;3.20;1.00;;;;;;5085246;28;20503;-69
2021/01/03 09:26:51;;;;;;;11.67;7.60;;;3.30;1.00;;;;;;5074558;28;20537;-71
2021/01/03 09:29:25;;;;;;;11.87;8.10;;;3.20;1.00;;;;;;5073713;28;20495;-71
2021/01/03 09:32:11;;;;;;;12.63;8.20;;;3.20;1.00;;;;;;5064074;28;20540;-72
2021/01/03 09:35:06;;;;;;;12.70;8.80;;;3.40;99.90;;;;;;5073927;28;20527;-72
2021/01/03 09:37:35;;;;;;;11.70;7.27;;;3.50;1.00;;;;;;5074714;28;20514;-71
2021/01/03 09:40:17;;;;;;;11.83;7.47;;;3.20;1.00;;;;;;5084754;28;20857;-72
2021/01/03 09:42:59;;;;;;;13.63;8.90;;;3.40;1.00;;;;;;5081115;28;20445;-70
2021/01/03 09:46:00;;;;;;;10.43;7.53;;;3.60;1.00;;;;;;5081544;28;20443;-71
2021/01/03 09:48:30;;;;;;;9.23;6.73;;;3.60;99.90;;;;;;5078400;28;20491;-71
2021/01/03 09:51:22;;;;;;;10.03;7.43;;;3.80;92.40;;;;;;5074651;28;20447;-71
2021/01/03 09:54:01;;;;;;;10.43;7.43;;;4.00;99.90;;;;;;5072774;28;21581;-72
2021/01/03 09:56:32;;;;;;;10.37;7.40;;;3.90;1.00;;;;;;5078043;28;20547;-73
2021/01/03 09:59:07;;;;;;;9.90;7.40;;;3.80;99.90;;;;;;5085610;28;20550;-73
2021/01/03 10:01:36;;;;;;;10.53;7.40;;;3.90;1.00;;;;;;5073127;28;20451;-69
2021/01/03 10:04:15;;;;;;;10.97;6.80;;;4.00;99.90;;;;;;5082084;28;20447;-70
2021/01/03 10:06:44;;;;;;;12.10;8.87;;;3.80;1.00;;;;;;5093801;28;20484;-70
2021/01/03 10:09:14;;;;;;;11.23;8.77;;;3.90;1.00;;;;;;5081274;28;20445;-70
2021/01/03 10:11:41;;;;;;;11.50;8.27;;;3.80;1.00;;;;;;5072820;28;20456;-69
2021/01/03 10:14:10;;;;;;;10.23;7.70;;;3.90;1.00;;;;;;5073545;28;20520;-69
2021/01/03 10:16:39;;;;;;;11.20;7.70;;;3.90;1.00;;;;;;5075442;28;20448;-69
2021/01/03 10:19:17;;;;;;;10.13;7.80;;;4.00;1.00;;;;;;5078080;28;20793;-72
2021/01/03 10:21:44;;;;;;;9.87;7.80;;;4.10;1.00;;;;;;5072661;28;20520;-73
2021/01/03 10:24:19;;;;;;;9.87;7.73;;;4.10;1.00;;;;;;5076245;28;20481;-71
2021/01/03 10:26:48;;;;;;;12.60;7.67;;;4.10;99.90;;;;;;5082238;28;20920;-71
2021/01/03 10:29:15;;;;;;;10.70;7.43;;;4.20;99.90;;;;;;5072135;28;20510;-71
2021/01/03 10:31:45;;;;;;;7.43;6.50;;;4.10;99.90;;;;;;5077982;28;21037;-71
2021/01/03 10:34:12;;;;;;;8.90;7.03;;;3.80;1.00;;;;;;5067261;28;20449;-72
2021/01/03 10:36:39;;;;;;;9.20;6.80;;;3.90;99.90;;;;;;5076943;28;20480;-72
2021/01/03 10:39:08;;;;;;;10.90;7.53;;;3.90;1.00;;;;;;5088518;28;20944;-72
2021/01/03 10:41:36;;;;;;;11.70;8.90;;;3.80;99.90;;;;;;5069692;28;20522;-72
2021/01/03 10:44:04;;;;;;;10.97;8.07;;;3.90;1.00;;;;;;5069865;28;20534;-72
2021/01/03 10:46:31;;;;;;;10.03;7.90;;;4.00;1.00;;;;;;5071125;28;20532;-72
2021/01/03 10:48:57;;;;;;;10.90;8.30;;;3.80;99.90;;;;;;5081396;28;20447;-71
2021/01/03 10:51:32;;;;;;;10.27;7.27;;;3.80;99.90;;;;;;5070429;28;20575;-71
2021/01/03 10:53:58;;;;;;;9.20;6.77;;;3.50;99.90;;;;;;5069997;28;20500;-71
2021/01/03 10:56:26;;;;;;;11.23;8.00;;;3.40;1.00;;;;;;5081974;28;20462;-71
2021/01/03 10:58:53;;;;;;;12.53;7.13;;;3.60;1.00;;;;;;5069940;28;20503;-70
2021/01/03 11:01:19;;;;;;;11.27;7.30;;;3.50;1.00;;;;;;5074543;28;20534;-71
2021/01/03 11:03:46;;;;;;;9.00;7.60;;;3.40;99.50;;;;;;5070072;28;20463;-73
2021/01/03 11:06:12;;;;;;;9.83;7.10;;;3.60;90.20;;;;;;5090619;28;20861;-72
2021/01/03 11:08:40;;;;;;;11.70;7.50;;;3.50;1.00;;;;;;5081294;28;20477;-72
2021/01/03 11:11:07;;;;;;;10.43;7.90;;;3.40;98.10;;;;;;5076076;28;20475;-71
2021/01/03 11:13:33;;;;;;;10.70;7.87;;;3.50;1.00;;;;;;5069437;28;20453;-71
2021/01/03 11:16:01;;;;;;;10.50;8.33;;;3.40;99.90;;;;;;5080487;28;20455;-72
2021/01/03 11:18:27;;;;;;;12.43;8.60;;;3.30;99.90;;;;;;5070042;28;20575;-71
2021/01/03 11:20:54;;;;;;;9.03;7.30;;;3.40;99.90;;;;;;5069819;28;20467;-71
2021/01/03 11:23:20;;;;;;;8.50;7.17;;;3.60;1.00;;;;;;5089208;28;20795;-70
2021/01/03 11:25:47;;;;;;;10.10;7.40;;;3.70;1.00;;;;;;5078718;28;20529;-71
2021/01/03 11:28:14;;;;;;;11.63;7.63;;;3.70;1.00;;;;;;5076786;28;20468;-72
2021/01/03 11:30:40;;;;;;;10.43;7.20;;;3.70;99.90;;;;;;5086680;28;20474;-72
2021/01/03 11:33:08;;;;;;;12.43;8.40;;;3.90;99.90;;;;;;5083781;28;20440;-73
2021/01/03 11:35:35;;;;;;;11.10;8.20;;;3.90;1.00;;;;;;5080440;28;20560;-73
2021/01/03 11:38:01;;;;;;;14.63;9.70;;;4.00;1.00;;;;;;5069119;28;20441;-73
2021/01/03 11:40:28;;;;;;;10.23;7.97;;;4.10;1.00;;;;;;5070140;28;20567;-73
2021/01/03 11:42:57;;;;;;;12.90;8.80;;;4.10;1.00;;;;;;5070910;28;20477;-74
2021/01/03 11:45:24;;;;;;;9.80;7.37;;;4.00;1.00;;;;;;5070473;28;20509;-74
2021/01/03 11:47:50;;;;;;;11.70;9.70;;;4.00;99.90;;;;;;5074108;28;20476;-73
2021/01/03 11:50:20;;;;;;;10.03;8.70;;;3.90;99.90;;;;;;5072534;28;20499;-71
2021/01/03 11:52:46;;;;;;;12.60;8.37;;;3.90;1.00;;;;;;5075474;28;20461;-73
2021/01/03 11:55:16;;;;;;;9.87;7.63;;;3.80;99.90;;;;;;5075291;28;20863;-72
2021/01/03 11:57:43;;;;;;;11.60;7.83;;;3.80;1.00;;;;;;5068792;28;20441;-72
2021/01/03 12:00:13;;;;;;;11.43;8.33;;;3.90;99.90;;;;;;5069502;28;20467;-71
2021/01/03 12:02:39;;;;;;;11.23;8.17;;;3.90;1.00;;;;;;5068728;28;20461;-71
2021/01/03 12:05:07;;;;;;;12.73;8.73;;;3.70;83.40;;;;;;5068327;28;20892;-72
2021/01/03 12:07:34;;;;;;;11.70;8.77;;;3.70;1.00;;;;;;5068381;28;20575;-73
2021/01/03 12:10:01;;;;;;;11.30;7.60;;;3.70;76.70;;;;;;5067982;28;20480;-72
2021/01/03 12:12:27;;;;;;;19.67;14.37;;;3.90;1.00;;;;;;5068028;28;20885;-73
2021/01/03 12:14:54;;;;;;;16.50;11.00;;;3.90;36.40;;;;;;5068382;28;20573;-73
2021/01/03 12:17:22;;;;;;;13.10;9.03;;;4.00;1.00;;;;;;5067826;28;20751;-72
2021/01/03 12:19:50;;;;;;;13.23;9.87;;;4.00;1.00;;;;;;5068090;28;20475;-72
2021/01/03 12:22:17;;;;;;;17.03;11.73;;;4.00;99.90;;;;;;5067587;28;20536;-72
2021/01/03 12:24:45;;;;;;;11.47;8.60;;;4.10;99.90;;;;;;5067817;28;20524;-72
2021/01/03 12:27:14;;;;;;;12.40;10.20;;;4.30;1.00;;;;;;5068100;28;21416;-72
2021/01/03 12:29:40;;;;;;;13.80;9.47;;;4.30;1.00;;;;;;5067611;28;21083;-72
2021/01/03 12:32:10;;;;;;;12.93;9.57;;;4.20;1.00;;;;;;5067910;28;20445;-72
2021/01/03 12:34:36;;;;;;;12.20;9.17;;;4.50;99.90;;;;;;5067778;28;20550;-73
2021/01/03 12:37:05;;;;;;;16.80;10.30;;;6.40;99.90;;;;;;5068508;28;20553;-72
2021/01/03 12:39:32;;;;;;;15.47;10.70;;;6.20;99.90;;;;;;5067051;28;20529;-71
2021/01/03 12:42:00;;;;;;;13.67;9.37;;;5.80;1.00;;;;;;5068096;28;21028;-69
2021/01/03 12:44:26;;;;;;;12.57;9.13;;;5.30;14.50;;;;;;5066865;28;20478;-72
2021/01/03 12:46:53;;;;;;;16.07;9.57;;;5.00;1.00;;;;;;5066901;28;20598;-72
2021/01/03 12:49:20;;;;;;;11.40;8.40;;;4.70;47.60;;;;;;5074213;28;20480;-71
2021/01/03 12:51:51;;;;;;;12.97;10.17;;;6.10;99.90;;;;;;5080380;28;20914;-71
2021/01/03 12:54:17;;;;;;;13.80;10.07;;;6.10;1.00;;;;;;5065526;28;20582;-73
2021/01/03 12:56:44;;;;;;;12.60;8.83;;;5.20;99.90;;;;;;5065459;28;20532;-72
2021/01/03 12:59:11;;;;;;;14.20;10.77;;;4.80;1.00;;;;;;5067659;28;20564;-72
2021/01/03 13:01:39;;;;;;;16.50;10.60;;;4.50;99.90;;;;;;5067645;28;20445;-73
2021/01/03 13:04:07;;;;;;;17.13;10.57;;;4.50;1.00;;;;;;5067523;28;20926;-73
2021/01/03 13:06:34;;;;;;;16.90;11.73;;;4.50;99.90;;;;;;5067172;28;20866;-73
2021/01/03 13:09:01;;;;;;;18.40;11.73;;;4.40;99.90;;;;;;5068043;28;20477;-72
2021/01/03 13:11:27;;;;;;;18.40;10.80;;;4.50;1.00;;;;;;5067429;28;20606;-72
2021/01/03 13:13:54;;;;;;;15.27;10.70;;;4.40;1.00;;;;;;5073372;28;20465;-72